createdAt,value
2022-10-08T00:06:24.574Z,13.89
2022-10-08T00:16:29.732Z,14.13
2022-10-08T00:26:42.638Z,14.15
2022-10-08T00:36:47.482Z,14.12
2022-10-08T00:46:52.205Z,13.97
2022-10-08T00:56:56.316Z,14.03
2022-10-08T01:07:12.433Z,13.85
2022-10-08T01:17:24.251Z,13.88
2022-10-08T01:27:33.844Z,13.80
2022-10-08T01:37:40.273Z,13.79
2022-10-08T01:47:47.045Z,13.64
2022-10-08T01:57:51.566Z,13.58
2022-10-08T02:07:56.463Z,13.75
2022-10-08T02:18:08.050Z,13.76
2022-10-08T02:28:19.503Z,13.78
2022-10-08T02:38:27.519Z,13.50
2022-10-08T02:48:34.170Z,13.39
2022-10-08T02:58:37.186Z,13.28
2022-10-08T03:08:44.512Z,13.33
2022-10-08T03:18:48.019Z,13.37
2022-10-08T03:28:53.219Z,13.36
2022-10-08T03:38:56.359Z,13.11
2022-10-08T03:49:00.638Z,13.26
2022-10-08T03:59:03.756Z,13.13
2022-10-08T04:09:08.012Z,13.16
2022-10-08T04:19:12.167Z,13.16
2022-10-08T04:29:16.582Z,13.19
2022-10-08T04:39:19.350Z,13.30
2022-10-08T04:49:24.769Z,13.35
2022-10-08T04:59:27.621Z,13.39
2022-10-08T05:09:31.871Z,13.47
2022-10-08T05:19:35.533Z,13.54
2022-10-08T05:29:39.805Z,13.70
2022-10-08T05:39:42.849Z,13.63
2022-10-08T05:49:46.872Z,13.64
2022-10-08T05:59:49.761Z,13.40
2022-10-08T06:09:54.072Z,13.60
2022-10-08T06:19:57.038Z,13.63
2022-10-08T06:30:01.291Z,13.72
2022-10-08T06:40:04.553Z,13.78
2022-10-08T06:50:09.266Z,13.67
2022-10-08T07:00:12.991Z,13.78
2022-10-08T07:10:18.591Z,14.00
2022-10-08T07:20:21.797Z,13.95
2022-10-08T07:30:27.949Z,14.76
2022-10-08T07:40:31.047Z,14.99
2022-10-08T07:50:35.231Z,14.53
2022-10-08T08:00:39.994Z,14.60
2022-10-08T08:10:44.522Z,14.63
2022-10-08T08:20:47.412Z,14.66
2022-10-08T08:30:51.682Z,14.82
2022-10-08T08:40:57.333Z,14.77
2022-10-08T08:51:04.403Z,14.90
2022-10-08T09:01:18.499Z,15.33
2022-10-08T09:11:25.102Z,15.17
2022-10-08T09:21:31.305Z,15.42
2022-10-08T09:31:42.515Z,15.83
2022-10-08T09:41:46.169Z,16.31
2022-10-08T09:51:51.885Z,16.65
2022-10-08T10:01:55.110Z,17.13
2022-10-08T10:12:04.927Z,16.60
2022-10-08T10:22:15.094Z,16.01
2022-10-08T10:32:23.902Z,15.90
2022-10-08T10:42:34.174Z,16.17
2022-10-08T10:52:52.333Z,16.12
2022-10-08T11:03:00.039Z,16.48
2022-10-08T11:13:17.962Z,17.05
2022-10-08T11:23:39.530Z,17.32
2022-10-08T11:33:45.783Z,16.67
2022-10-08T11:43:55.739Z,17.05
2022-10-08T11:54:08.135Z,17.57
2022-10-08T12:04:20.936Z,17.10
2022-10-08T12:14:49.457Z,17.30
2022-10-08T12:24:55.844Z,17.94
2022-10-08T12:35:04.788Z,18.08
2022-10-08T12:45:14.379Z,18.17
2022-10-08T12:55:22.586Z,18.50
2022-10-08T13:05:27.752Z,18.14
2022-10-08T13:15:33.564Z,17.92
2022-10-08T13:25:38.686Z,18.28
2022-10-08T13:35:44.158Z,18.39
2022-10-08T13:45:47.183Z,18.28
2022-10-08T13:55:51.754Z,18.18
2022-10-08T14:05:54.744Z,18.02
2022-10-08T14:15:59.038Z,17.90
2022-10-08T14:26:01.928Z,18.06
2022-10-08T14:36:08.657Z,17.67
2022-10-08T14:46:11.593Z,17.31
2022-10-08T14:56:15.911Z,17.57
2022-10-08T15:06:18.875Z,17.35
2022-10-08T15:16:23.351Z,17.41
2022-10-08T15:26:27.038Z,17.23
2022-10-08T15:36:33.136Z,17.14
2022-10-08T15:46:36.231Z,16.96
2022-10-08T15:56:40.699Z,16.88
2022-10-08T16:06:45.294Z,16.63
2022-10-08T16:16:50.178Z,16.63
2022-10-08T16:26:53.506Z,16.64
2022-10-08T16:36:59.669Z,16.48
2022-10-08T16:47:02.664Z,16.31
2022-10-08T16:57:06.999Z,16.35
2022-10-08T17:07:09.803Z,16.24
2022-10-08T17:17:14.796Z,15.87
2022-10-08T17:27:17.776Z,15.95
2022-10-08T17:37:21.931Z,15.78
2022-10-08T17:47:29.047Z,15.78
2022-10-08T17:57:33.594Z,15.71
2022-10-08T18:07:36.521Z,15.57
2022-10-08T18:17:40.911Z,15.51
2022-10-08T18:27:43.799Z,15.04
2022-10-08T18:37:48.630Z,15.11
2022-10-08T18:47:51.553Z,15.04
2022-10-08T18:57:56.139Z,15.17
2022-10-08T19:07:59.103Z,14.81
2022-10-08T19:18:03.632Z,15.28
2022-10-08T19:28:06.597Z,14.70
2022-10-08T19:38:11.123Z,14.55
2022-10-08T19:48:14.110Z,14.51
2022-10-08T19:58:18.592Z,14.53
2022-10-08T20:08:21.613Z,14.42
2022-10-08T20:18:25.730Z,14.38
2022-10-08T20:28:28.734Z,14.04
2022-10-08T20:38:33.144Z,13.93
2022-10-08T20:48:37.604Z,13.63
2022-10-08T20:58:42.264Z,13.52
2022-10-08T21:08:47.412Z,13.18
2022-10-08T21:18:53.069Z,13.22
2022-10-08T21:28:57.837Z,12.69
2022-10-08T21:39:03.853Z,12.60
2022-10-08T21:49:09.854Z,12.50
2022-10-08T21:59:16.482Z,12.52
2022-10-08T22:09:22.293Z,12.40
2022-10-08T22:19:26.670Z,12.03
2022-10-08T22:29:29.431Z,11.99
2022-10-08T22:39:33.569Z,11.82
2022-10-08T22:49:36.604Z,11.97
2022-10-08T22:59:41.050Z,11.90
2022-10-08T23:09:43.837Z,11.77
2022-10-08T23:19:48.094Z,11.78
2022-10-08T23:29:51.057Z,11.00
2022-10-08T23:39:57.918Z,11.29
2022-10-08T23:50:01.122Z,11.30
